GLACB EGCB-ANY
Flight info
| Callsign | GLACB |
|---|---|
| Flight time | N/A |
| Altitude | 3000 |
| Route | EGCB |
| Aircraft | PA28/L-SDE2E3FGHIJ1RWXY/LB1 |
Departure
| Time | 2026-04-28 15:03 |
|---|---|
| Airport | Manchester Barton Aerodrome (EGCB) |
Arrival
| Time | N/A |
|---|---|
| Airport | ANY |
| Time | Latitude | Longitude | Altitude | Speed | Heading |
|---|---|---|---|---|---|
| 2026-04-28 14:59 | 53.47117 | -2.38717 | 64 ft | 0 kts | 354° |
| 2026-04-28 15:00 | 53.47125 | -2.38727 | 71 ft | 11 kts | 317° |
| 2026-04-28 15:00 | 53.47124 | -2.38823 | 73 ft | 6 kts | 267° |
| 2026-04-28 15:00 | 53.47115 | -2.38896 | 67 ft | 10 kts | 254° |
| 2026-04-28 15:01 | 53.47097 | -2.38988 | 70 ft | 6 kts | 266° |
| 2026-04-28 15:01 | 53.47096 | -2.39044 | 73 ft | 4 kts | 271° |
| 2026-04-28 15:01 | 53.47099 | -2.39137 | 72 ft | 10 kts | 271° |
| 2026-04-28 15:01 | 53.47084 | -2.39300 | 69 ft | 14 kts | 261° |
| 2026-04-28 15:02 | 53.47091 | -2.39449 | 72 ft | 11 kts | 296° |
| 2026-04-28 15:02 | 53.47117 | -2.39431 | 73 ft | 5 kts | 71° |
| 2026-04-28 15:02 | 53.47150 | -2.39086 | 143 ft | 42 kts | 76° |
| 2026-04-28 15:02 | 53.47190 | -2.38573 | 353 ft | 50 kts | 75° |
| 2026-04-28 15:03 | 53.47340 | -2.37921 | 562 ft | 70 kts | 43° |
| 2026-04-28 15:03 | 53.47756 | -2.38441 | 680 ft | 121 kts | 269° |
| 2026-04-28 15:03 | 53.47411 | -2.39811 | 777 ft | 124 kts | 245° |
| 2026-04-28 15:03 | 53.47034 | -2.41083 | 953 ft | 126 kts | 245° |
| 2026-04-28 15:04 | 53.46454 | -2.41933 | 1017 ft | 115 kts | 154° |
| 2026-04-28 15:04 | 53.46581 | -2.40931 | 657 ft | 124 kts | 36° |
| 2026-04-28 15:04 | 53.47057 | -2.40131 | 282 ft | 77 kts | 73° |
| 2026-04-28 15:04 | 53.47130 | -2.39361 | 83 ft | 56 kts | 77° |
| 2026-04-28 15:05 | 53.47153 | -2.38913 | 74 ft | 21 kts | 102° |
| 2026-04-28 15:05 | 53.47098 | -2.38797 | 71 ft | 6 kts | 135° |
| 2026-04-28 15:05 | 53.47079 | -2.38776 | 75 ft | 0 kts | 233° |